createdAt,value
2022-08-11T00:02:29.923Z,23.30
2022-08-11T00:05:02.578Z,23.30
2022-08-11T00:07:31.490Z,23.30
2022-08-11T00:10:00.700Z,23.20
2022-08-11T00:12:29.988Z,23.20
2022-08-11T00:15:01.192Z,23.20
2022-08-11T00:17:33.213Z,23.10
2022-08-11T00:20:12.894Z,23.10
2022-08-11T00:22:46.967Z,23.10
2022-08-11T00:25:17.706Z,23.10
2022-08-11T00:27:48.123Z,23.00
2022-08-11T00:30:17.255Z,23.00
2022-08-11T00:32:58.761Z,23.00
2022-08-11T00:35:53.848Z,23.00
2022-08-11T00:38:25.971Z,22.90
2022-08-11T00:41:01.379Z,22.90
2022-08-11T00:43:48.715Z,22.90
2022-08-11T00:46:29.712Z,22.90
2022-08-11T00:49:14.552Z,22.80
2022-08-11T00:52:05.034Z,22.80
2022-08-11T00:55:10.421Z,22.70
2022-08-11T00:58:09.426Z,22.70
2022-08-11T01:00:59.738Z,22.70
2022-08-11T01:03:49.023Z,22.60
2022-08-11T01:06:53.383Z,22.60
2022-08-11T01:09:37.570Z,22.60
2022-08-11T01:12:27.772Z,22.50
2022-08-11T01:15:40.759Z,22.50
2022-08-11T01:18:54.830Z,22.50
2022-08-11T01:22:09.819Z,22.50
2022-08-11T01:25:07.815Z,22.40
2022-08-11T01:28:23.003Z,22.40
2022-08-11T01:31:32.522Z,22.40
2022-08-11T01:34:40.002Z,22.30
2022-08-11T01:38:00.206Z,22.30
2022-08-11T01:41:01.435Z,22.30
2022-08-11T01:44:23.313Z,22.20
2022-08-11T01:46:57.614Z,22.20
2022-08-11T01:50:07.175Z,22.20
2022-08-11T01:52:33.362Z,22.10
2022-08-11T01:55:15.908Z,22.10
2022-08-11T01:57:51.103Z,22.10
2022-08-11T02:00:22.460Z,22.00
2022-08-11T02:02:59.174Z,22.00
2022-08-11T02:05:48.481Z,22.00
2022-08-11T02:08:33.504Z,21.90
2022-08-11T02:11:35.057Z,21.90
2022-08-11T02:14:16.217Z,21.90
2022-08-11T02:16:54.527Z,21.80
2022-08-11T02:19:46.050Z,21.80
2022-08-11T02:22:39.978Z,21.80
2022-08-11T02:25:11.695Z,21.80
2022-08-11T02:27:54.240Z,21.70
2022-08-11T02:30:29.543Z,21.70
2022-08-11T02:33:23.720Z,21.60
2022-08-11T02:36:04.647Z,21.60
2022-08-11T02:38:50.492Z,21.60
2022-08-11T02:41:52.337Z,21.60
2022-08-11T02:44:33.974Z,21.50
2022-08-11T02:47:10.584Z,21.50
2022-08-11T02:50:06.278Z,21.40
2022-08-11T02:52:42.916Z,21.40
2022-08-11T02:55:56.313Z,21.40
2022-08-11T02:58:15.796Z,21.40
2022-08-11T03:00:51.227Z,21.40
2022-08-11T03:03:26.837Z,21.40
2022-08-11T03:06:07.208Z,21.30
2022-08-11T03:08:52.623Z,21.30
2022-08-11T03:11:50.683Z,21.20
2022-08-11T03:14:43.969Z,21.20
2022-08-11T03:17:26.385Z,21.20
2022-08-11T03:20:07.092Z,21.10
2022-08-11T03:22:41.668Z,21.10
2022-08-11T03:25:30.438Z,21.10
2022-08-11T03:28:06.913Z,21.10
2022-08-11T03:30:44.754Z,21.10
2022-08-11T03:33:41.472Z,21.00
2022-08-11T03:36:17.794Z,21.00
2022-08-11T03:38:57.930Z,21.00
2022-08-11T03:42:03.865Z,20.90
2022-08-11T03:44:56.061Z,20.90
2022-08-11T03:47:41.233Z,20.90
2022-08-11T03:50:34.655Z,20.80
2022-08-11T03:53:17.485Z,20.80
2022-08-11T03:56:11.807Z,20.80
2022-08-11T03:59:08.101Z,20.80
2022-08-11T04:02:09.855Z,20.70
2022-08-11T04:05:11.354Z,20.70
2022-08-11T04:08:42.770Z,20.70
2022-08-11T04:11:29.843Z,20.70
2022-08-11T04:15:03.656Z,20.60
2022-08-11T04:18:05.548Z,20.60
2022-08-11T04:20:52.940Z,20.60
2022-08-11T04:24:34.812Z,20.60
2022-08-11T04:27:36.907Z,20.60
2022-08-11T04:30:12.261Z,20.60
2022-08-11T04:33:19.846Z,20.50
2022-08-11T04:35:57.101Z,20.50
2022-08-11T04:38:46.244Z,20.40
2022-08-11T04:42:11.462Z,20.40
2022-08-11T04:45:34.577Z,20.40
2022-08-11T04:48:41.019Z,20.30
2022-08-11T04:52:02.431Z,20.30
2022-08-11T04:55:12.244Z,20.30
2022-08-11T04:58:10.546Z,20.20
2022-08-11T05:01:13.830Z,20.20
2022-08-11T05:04:30.578Z,20.20
2022-08-11T05:07:41.406Z,20.20
2022-08-11T05:10:22.810Z,20.10
2022-08-11T05:12:56.704Z,20.10
2022-08-11T05:16:08.708Z,20.10
2022-08-11T05:19:04.434Z,20.10
2022-08-11T05:21:52.674Z,20.00
2022-08-11T05:24:41.128Z,20.00
2022-08-11T05:27:29.106Z,20.00
2022-08-11T05:30:20.166Z,20.00
2022-08-11T05:33:15.967Z,20.00
2022-08-11T05:36:01.224Z,20.00
2022-08-11T05:38:52.610Z,19.90
2022-08-11T05:41:40.740Z,19.90
2022-08-11T05:44:28.848Z,19.90
2022-08-11T05:47:15.995Z,19.90
2022-08-11T05:50:08.752Z,19.90
2022-08-11T05:53:05.040Z,19.90
2022-08-11T05:56:03.282Z,19.90
2022-08-11T05:58:42.698Z,19.90
2022-08-11T06:01:13.168Z,19.80
2022-08-11T06:03:59.846Z,19.80
2022-08-11T06:06:29.450Z,19.80
2022-08-11T06:09:00.813Z,19.80
2022-08-11T06:11:43.916Z,19.80
2022-08-11T06:14:15.715Z,19.80
2022-08-11T06:16:48.268Z,19.80
2022-08-11T06:19:17.141Z,19.80
2022-08-11T06:21:48.989Z,19.80
2022-08-11T06:24:19.680Z,19.80
2022-08-11T06:27:12.801Z,19.80
2022-08-11T06:29:54.812Z,19.80
2022-08-11T06:32:27.165Z,19.80
2022-08-11T06:35:15.019Z,19.90
2022-08-11T06:37:49.059Z,19.90
2022-08-11T06:40:35.101Z,19.90
2022-08-11T06:43:11.847Z,19.90
2022-08-11T06:45:50.240Z,20.00
2022-08-11T06:48:22.467Z,20.00
2022-08-11T06:51:15.001Z,20.00
2022-08-11T06:53:56.224Z,20.00
2022-08-11T06:57:18.597Z,20.10
2022-08-11T07:00:01.343Z,20.10
2022-08-11T07:02:34.926Z,20.10
2022-08-11T07:05:08.257Z,20.20
2022-08-11T07:08:43.707Z,20.20
2022-08-11T07:11:45.453Z,20.20
2022-08-11T07:14:38.830Z,20.30
2022-08-11T07:17:12.502Z,20.40
2022-08-11T07:20:02.129Z,20.40
2022-08-11T07:22:51.268Z,20.50
2022-08-11T07:25:37.913Z,20.50
2022-08-11T07:28:30.852Z,20.50
2022-08-11T07:31:08.313Z,20.60
2022-08-11T07:34:08.573Z,20.70
2022-08-11T07:36:35.376Z,20.70
2022-08-11T07:39:04.974Z,20.80
2022-08-11T07:41:36.343Z,20.80
2022-08-11T07:44:10.029Z,20.90
2022-08-11T07:47:00.935Z,21.00
2022-08-11T07:49:49.887Z,21.00
2022-08-11T07:52:28.170Z,21.00
2022-08-11T07:54:57.675Z,21.20
2022-08-11T07:58:14.108Z,21.30
2022-08-11T08:00:55.901Z,21.50
2022-08-11T08:03:54.824Z,21.70
2022-08-11T08:06:41.570Z,21.80
2022-08-11T08:09:27.838Z,21.90
2022-08-11T08:12:14.266Z,22.10
2022-08-11T08:15:01.241Z,22.20
2022-08-11T08:18:08.513Z,22.40
2022-08-11T08:20:40.379Z,22.50
2022-08-11T08:23:09.670Z,22.60
2022-08-11T08:25:41.342Z,22.70
2022-08-11T08:28:14.638Z,22.80
2022-08-11T08:30:51.188Z,23.00
2022-08-11T08:33:22.491Z,23.10
2022-08-11T08:36:11.813Z,23.20
2022-08-11T08:38:42.475Z,23.30
2022-08-11T08:41:13.287Z,23.50
2022-08-11T08:43:49.639Z,23.50
2022-08-11T08:46:29.174Z,23.70
2022-08-11T08:49:01.451Z,23.80
2022-08-11T08:52:02.527Z,23.90
2022-08-11T08:54:37.555Z,24.00
2022-08-11T08:57:07.846Z,24.20
2022-08-11T08:59:48.365Z,24.30
2022-08-11T09:02:20.593Z,24.40
2022-08-11T09:05:03.966Z,24.50
2022-08-11T09:07:38.797Z,24.60
2022-08-11T09:10:10.507Z,24.60
2022-08-11T09:12:41.211Z,24.80
2022-08-11T09:15:11.859Z,24.90
2022-08-11T09:17:44.827Z,25.00
2022-08-11T09:20:16.125Z,25.10
2022-08-11T09:26:14.116Z,25.30
2022-08-11T09:28:44.362Z,25.40
2022-08-11T09:31:14.177Z,25.50
2022-08-11T09:33:43.837Z,25.60
2022-08-11T09:36:32.118Z,25.60
2022-08-11T09:39:21.996Z,25.70
2022-08-11T09:42:00.806Z,25.80
2022-08-11T09:44:48.832Z,25.90
2022-08-11T09:47:24.619Z,26.00
2022-08-11T09:49:56.285Z,26.10
2022-08-11T09:52:26.118Z,26.20
2022-08-11T09:54:56.739Z,26.30
2022-08-11T09:57:43.966Z,26.30
2022-08-11T10:00:15.288Z,26.40
2022-08-11T10:02:47.292Z,26.40
2022-08-11T10:05:39.547Z,26.50
2022-08-11T10:08:10.320Z,26.50
2022-08-11T10:10:41.392Z,26.60
2022-08-11T10:14:29.332Z,26.70
2022-08-11T10:16:15.926Z,26.80
2022-08-11T10:18:53.182Z,26.80
2022-08-11T10:21:29.303Z,26.90
2022-08-11T10:24:17.895Z,26.90
2022-08-11T10:26:56.851Z,27.00
2022-08-11T10:29:45.321Z,27.00
2022-08-11T10:32:57.797Z,27.00
2022-08-11T10:35:27.641Z,27.20
2022-08-11T10:38:08.948Z,27.20
2022-08-11T10:40:40.805Z,27.20
2022-08-11T10:43:14.290Z,27.30
2022-08-11T10:46:05.777Z,27.30
2022-08-11T10:48:39.947Z,27.40
2022-08-11T10:51:14.966Z,27.50
2022-08-11T10:54:02.906Z,27.50
2022-08-11T10:56:50.998Z,27.60
2022-08-11T10:59:22.303Z,27.60
2022-08-11T11:01:51.655Z,27.60
2022-08-11T11:04:25.396Z,27.60
2022-08-11T11:07:00.230Z,27.60
2022-08-11T11:09:32.689Z,27.60
2022-08-11T11:12:23.385Z,27.70
2022-08-11T11:15:16.117Z,27.70
2022-08-11T11:18:01.694Z,27.80
2022-08-11T11:20:37.730Z,27.80
2022-08-11T11:23:12.537Z,27.80
2022-08-11T11:26:07.468Z,27.90
2022-08-11T11:29:16.467Z,28.00
2022-08-11T11:32:25.718Z,28.00
2022-08-11T11:35:09.154Z,28.10
2022-08-11T11:37:38.532Z,28.20
2022-08-11T11:40:11.733Z,28.10
2022-08-11T11:42:41.846Z,28.20
2022-08-11T11:45:22.040Z,28.20
2022-08-11T11:47:55.565Z,28.20
2022-08-11T11:50:32.937Z,28.30
2022-08-11T11:53:03.268Z,28.30
2022-08-11T11:55:32.466Z,28.30
2022-08-11T11:58:20.263Z,28.40
2022-08-11T12:01:09.873Z,28.40
2022-08-11T12:03:40.863Z,28.30
2022-08-11T12:06:12.269Z,28.40
2022-08-11T12:08:41.267Z,28.40
2022-08-11T12:11:30.179Z,28.40
2022-08-11T12:14:01.368Z,28.40
2022-08-11T12:16:35.488Z,28.50
2022-08-11T12:19:08.952Z,28.50
2022-08-11T12:21:38.636Z,28.50
2022-08-11T12:24:29.129Z,28.50
2022-08-11T12:27:17.641Z,28.50
2022-08-11T12:29:54.874Z,28.50
2022-08-11T12:32:26.101Z,28.50
2022-08-11T12:34:58.252Z,28.60
2022-08-11T12:37:31.586Z,28.50
2022-08-11T12:40:43.131Z,28.60
2022-08-11T12:43:37.195Z,28.60
2022-08-11T12:46:10.226Z,28.60
2022-08-11T12:49:02.919Z,28.60
2022-08-11T12:52:06.816Z,28.60
2022-08-11T12:54:59.126Z,28.60
2022-08-11T12:57:48.880Z,28.60
2022-08-11T13:00:36.672Z,28.60
2022-08-11T13:03:26.426Z,28.70
2022-08-11T13:05:57.573Z,28.70
2022-08-11T13:08:29.639Z,28.70
2022-08-11T13:11:17.986Z,28.70
2022-08-11T13:13:55.353Z,28.70
2022-08-11T13:16:27.786Z,28.70
2022-08-11T13:18:57.645Z,28.70
2022-08-11T13:21:27.692Z,28.70
2022-08-11T13:24:00.562Z,28.80
2022-08-11T13:26:46.987Z,28.80
2022-08-11T13:29:22.656Z,28.90
2022-08-11T13:31:53.016Z,28.90
2022-08-11T13:34:22.866Z,28.90
2022-08-11T13:36:53.218Z,29.00
2022-08-11T13:39:25.887Z,29.00
2022-08-11T13:41:57.043Z,29.00
2022-08-11T13:44:28.388Z,28.90
2022-08-11T13:47:01.738Z,28.90
2022-08-11T13:49:32.102Z,28.90
2022-08-11T13:52:01.115Z,29.00
2022-08-11T13:54:34.245Z,29.00
2022-08-11T13:57:09.276Z,29.10
2022-08-11T13:59:52.342Z,29.00
2022-08-11T14:02:30.706Z,29.10
2022-08-11T14:05:02.751Z,29.00
2022-08-11T14:07:36.895Z,29.10
2022-08-11T14:10:08.805Z,29.10
2022-08-11T14:12:56.937Z,29.10
2022-08-11T14:15:29.184Z,29.20
2022-08-11T14:18:01.795Z,29.20
2022-08-11T14:20:53.952Z,29.20
2022-08-11T14:23:27.735Z,29.20
2022-08-11T14:26:16.181Z,29.30
2022-08-11T14:28:45.498Z,29.30
2022-08-11T14:31:15.948Z,29.30
2022-08-11T14:34:01.074Z,29.30
2022-08-11T14:36:35.074Z,29.30
2022-08-11T14:39:07.082Z,29.30
2022-08-11T14:42:07.478Z,29.30
2022-08-11T14:45:00.704Z,29.30
2022-08-11T14:47:31.790Z,29.30
2022-08-11T14:50:11.887Z,29.30
2022-08-11T14:52:45.996Z,29.30
2022-08-11T14:55:32.601Z,29.30
2022-08-11T14:58:03.850Z,29.40
2022-08-11T15:00:34.381Z,29.30
2022-08-11T15:03:11.252Z,29.30
2022-08-11T15:05:56.616Z,29.40
2022-08-11T15:08:49.011Z,29.40
2022-08-11T15:11:37.332Z,29.30
2022-08-11T15:14:09.413Z,29.30
2022-08-11T15:16:59.445Z,29.40
2022-08-11T15:19:40.507Z,29.40
2022-08-11T15:22:28.427Z,29.40
2022-08-11T15:24:58.729Z,29.40
2022-08-11T15:27:47.719Z,29.40
2022-08-11T15:30:35.569Z,29.30
2022-08-11T15:33:25.745Z,29.30
2022-08-11T15:36:12.829Z,29.40
2022-08-11T15:38:45.981Z,29.40
2022-08-11T15:41:36.521Z,29.40
2022-08-11T15:44:51.316Z,29.40
2022-08-11T15:47:21.601Z,29.40
2022-08-11T15:50:10.388Z,29.40
2022-08-11T15:52:49.865Z,29.40
2022-08-11T15:55:19.299Z,29.50
2022-08-11T15:58:08.325Z,29.50
2022-08-11T16:00:57.989Z,29.50
2022-08-11T16:04:08.191Z,29.50
2022-08-11T16:06:47.562Z,29.50
2022-08-11T16:09:21.780Z,29.50
2022-08-11T16:11:52.654Z,29.60
2022-08-11T16:14:39.763Z,29.60
2022-08-11T16:17:10.451Z,29.50
2022-08-11T16:19:42.502Z,29.60
2022-08-11T16:22:14.125Z,29.60
2022-08-11T16:27:02.080Z,29.60
2022-08-11T16:27:38.395Z,29.50
2022-08-11T16:30:09.308Z,29.50
2022-08-11T16:32:41.654Z,29.50
2022-08-11T16:35:32.288Z,29.50
2022-08-11T16:38:20.041Z,29.50
2022-08-11T16:40:52.462Z,29.50
2022-08-11T16:43:41.938Z,29.60
2022-08-11T16:46:28.951Z,29.60
2022-08-11T16:48:59.322Z,29.60
2022-08-11T16:51:29.086Z,29.60
2022-08-11T16:54:05.097Z,29.50
2022-08-11T16:56:38.677Z,29.50
2022-08-11T16:59:17.029Z,29.50
2022-08-11T17:01:53.249Z,29.50
2022-08-11T17:04:46.748Z,29.50
2022-08-11T17:07:41.909Z,29.50
2022-08-11T17:10:50.342Z,29.50
2022-08-11T17:13:27.203Z,29.50
2022-08-11T17:16:12.748Z,29.50
2022-08-11T17:18:47.163Z,29.50
2022-08-11T17:21:22.446Z,29.50
2022-08-11T17:23:55.296Z,29.40
2022-08-11T17:26:49.294Z,29.40
2022-08-11T17:29:20.055Z,29.40
2022-08-11T17:32:07.145Z,29.30
2022-08-11T17:34:53.901Z,29.30
2022-08-11T17:37:24.468Z,29.30
2022-08-11T17:39:57.071Z,29.20
2022-08-11T17:42:46.084Z,29.20
2022-08-11T17:45:32.831Z,29.20
2022-08-11T17:48:20.930Z,29.10
2022-08-11T17:50:50.616Z,29.10
2022-08-11T17:53:37.301Z,29.10
2022-08-11T17:56:26.102Z,29.00
2022-08-11T17:59:12.502Z,29.00
2022-08-11T18:01:44.405Z,28.90
2022-08-11T18:04:14.164Z,28.90
2022-08-11T18:06:45.863Z,28.90
2022-08-11T18:09:35.799Z,28.90
2022-08-11T18:12:26.531Z,29.00
2022-08-11T18:15:15.855Z,29.00
2022-08-11T18:18:02.827Z,29.00
2022-08-11T18:20:49.675Z,28.90
2022-08-11T18:23:40.482Z,28.90
2022-08-11T18:26:38.306Z,28.90
2022-08-11T18:29:27.067Z,28.80
2022-08-11T18:32:20.785Z,28.60
2022-08-11T18:35:11.200Z,28.60
2022-08-11T18:38:04.465Z,28.50
2022-08-11T18:40:54.270Z,28.40
2022-08-11T18:43:43.591Z,28.50
2022-08-11T18:46:34.275Z,28.50
2022-08-11T18:49:34.271Z,28.50
2022-08-11T18:52:35.967Z,28.50
2022-08-11T18:55:26.024Z,28.50
2022-08-11T18:58:13.514Z,28.50
2022-08-11T19:01:03.389Z,28.40
2022-08-11T19:03:52.415Z,28.40
2022-08-11T19:06:41.355Z,28.40
2022-08-11T19:09:31.617Z,28.40
2022-08-11T19:12:19.634Z,28.30
2022-08-11T19:15:09.175Z,28.30
2022-08-11T19:17:57.577Z,28.20
2022-08-11T19:20:48.660Z,28.20
2022-08-11T19:23:39.390Z,28.10
2022-08-11T19:26:26.432Z,28.10
2022-08-11T19:30:08.040Z,28.10
2022-08-11T19:32:21.613Z,28.10
2022-08-11T19:35:09.128Z,28.00
2022-08-11T19:37:58.866Z,28.00
2022-08-11T19:40:45.743Z,27.90
2022-08-11T19:43:32.485Z,27.90
2022-08-11T19:46:19.856Z,27.90
2022-08-11T19:49:09.351Z,27.80
2022-08-11T19:51:55.998Z,27.80
2022-08-11T19:54:46.009Z,27.70
2022-08-11T19:57:37.326Z,27.70
2022-08-11T20:00:30.278Z,27.60
2022-08-11T20:03:18.653Z,27.60
2022-08-11T20:06:05.760Z,27.60
2022-08-11T20:08:57.795Z,27.50
2022-08-11T20:11:49.056Z,27.50
2022-08-11T20:14:36.083Z,27.40
2022-08-11T20:17:23.200Z,27.40
2022-08-11T20:20:10.042Z,27.30
2022-08-11T20:22:57.076Z,27.30
2022-08-11T20:25:44.460Z,27.30
2022-08-11T20:28:32.861Z,27.20
2022-08-11T20:31:18.942Z,27.20
2022-08-11T20:34:05.438Z,27.10
2022-08-11T20:36:54.891Z,27.10
2022-08-11T20:39:43.258Z,27.10
2022-08-11T20:42:31.191Z,27.10
2022-08-11T20:45:23.737Z,27.00
2022-08-11T20:48:15.056Z,27.00
2022-08-11T20:51:06.484Z,26.90
2022-08-11T20:53:56.544Z,26.90
2022-08-11T20:56:45.420Z,26.90
2022-08-11T20:59:33.299Z,26.80
2022-08-11T21:02:37.582Z,26.80
2022-08-11T21:06:08.695Z,26.70
2022-08-11T21:08:31.113Z,26.70
2022-08-11T21:14:30.372Z,26.60
2022-08-11T21:17:27.402Z,26.60
2022-08-11T21:20:21.050Z,26.60
2022-08-11T21:23:23.900Z,26.50
2022-08-11T21:26:15.719Z,26.50
2022-08-11T21:29:02.512Z,26.40
2022-08-11T21:31:51.054Z,26.40
2022-08-11T21:34:40.972Z,26.30
2022-08-11T21:37:31.033Z,26.30
2022-08-11T21:40:19.222Z,26.20
2022-08-11T21:43:07.315Z,26.20
2022-08-11T21:45:56.049Z,26.20
2022-08-11T21:48:45.131Z,26.10
2022-08-11T21:51:31.188Z,26.10
2022-08-11T21:54:19.363Z,26.10
2022-08-11T21:57:06.216Z,26.00
2022-08-11T22:00:00.683Z,26.00
2022-08-11T22:02:47.563Z,25.90
2022-08-11T22:05:39.796Z,25.90
2022-08-11T22:08:26.698Z,25.90
2022-08-11T22:11:14.235Z,25.80
2022-08-11T22:14:05.946Z,25.80
2022-08-11T22:16:53.697Z,25.80
2022-08-11T22:19:41.885Z,25.70
2022-08-11T22:22:29.282Z,25.70
2022-08-11T22:25:18.499Z,25.60
2022-08-11T22:28:06.478Z,25.60
2022-08-11T22:30:52.653Z,25.50
2022-08-11T22:34:00.717Z,25.50
2022-08-11T22:36:46.832Z,25.50
2022-08-11T22:39:35.429Z,25.40
2022-08-11T22:42:24.100Z,25.40
2022-08-11T22:45:21.917Z,25.40
2022-08-11T22:48:09.368Z,25.30
2022-08-11T22:50:57.353Z,25.30
2022-08-11T22:53:57.456Z,25.30
2022-08-11T22:56:45.665Z,25.20
2022-08-11T22:59:33.252Z,25.20
2022-08-11T23:02:21.002Z,25.20
2022-08-11T23:05:08.413Z,25.10
2022-08-11T23:07:55.134Z,25.10
2022-08-11T23:10:41.656Z,25.00
2022-08-11T23:13:28.309Z,25.00
2022-08-11T23:16:14.416Z,25.00
2022-08-11T23:19:02.141Z,24.90
2022-08-11T23:21:49.802Z,24.90
2022-08-11T23:24:36.573Z,24.80
2022-08-11T23:27:24.624Z,24.80
2022-08-11T23:30:13.743Z,24.80
2022-08-11T23:33:04.983Z,24.80
2022-08-11T23:35:55.410Z,24.70
2022-08-11T23:38:42.506Z,24.70
2022-08-11T23:41:29.487Z,24.60
2022-08-11T23:44:15.453Z,24.60
2022-08-11T23:47:02.704Z,24.60
2022-08-11T23:49:48.825Z,24.50
2022-08-11T23:52:39.450Z,24.50
2022-08-11T23:55:26.332Z,24.50
2022-08-11T23:58:12.382Z,24.40
